• Join FlightAware (Why Join?)
  • Login
  • US Flag 
03:17PM EDT


 

Airport Tracker/Info


-or-


 

Live Flight TrackerFlight Track Log ✈ CDG4723 ✈ 20-Nov-2013 ✈ ZSWY / WUS - ZSAM / XMN

Flight Track Log - Related Links

Times and Time Zones

All times are in EST time to prevent confusion due to time zone crossing. See the CDG4723 flight status page for this flight to view local times or setup timezone preferences in your user account.

Time Position Orientation Groundspeed Altitude Reporting Facility
EST Latitude Longitude Course Direction KTS MPH feet Rate Location/Type
11:54PM 26.9302 118.0329 178° South  Level Estimated
11:55PM 26.8530 118.0360 178° South  Level Estimated
11:56PM 26.7759 118.0392 178° South  Level Estimated
11:57PM 26.6987 118.0423 178° South  Level Estimated
11:58PM 26.6215 118.0454 178° South  Level Estimated
11:59PM 26.5443 118.0485 178° South  Level Estimated
12:00AM 26.4672 118.0516 178° South  Level Estimated
12:01AM 26.3900 118.0547 178° South  Level Estimated
12:02AM 26.3128 118.0578 178° South  Level Estimated
12:03AM 26.2356 118.0609 178° South  Level Estimated
12:04AM 26.1584 118.0640 178° South  Level Estimated
12:05AM 26.0813 118.0671 178° South  Level Estimated
12:06AM 26.0041 118.0702 178° South  Level Estimated
12:07AM 25.9269 118.0732 178° South  Level Estimated
12:08AM 25.8497 118.0763 178° South  Level Estimated
12:09AM 25.7725 118.0794 178° South  Level Estimated
12:10AM 25.6954 118.0825 178° South  Level Estimated
12:11AM 25.6182 118.0855 178° South  Level Estimated
12:12AM 25.5410 118.0886 178° South  Level Estimated
12:13AM 25.4638 118.0916 178° South  Level Estimated
12:14AM 25.3866 118.0947 178° South  Level Estimated
12:15AM 25.3095 118.0977 178° South  Level Estimated
12:16AM 25.2323 118.1008 178° South  Level Estimated
12:17AM 25.1551 118.1038 178° South  Level Estimated
12:18AM 25.0779 118.1068 178° South  Level Estimated
12:19AM 25.0007 118.1099 178° South  Level Estimated
12:20AM 24.9236 118.1129 178° South  Level Estimated
12:21AM 24.8464 118.1159 178° South  Level Estimated
12:22AM 24.7692 118.1189 178° South  Level Estimated
12:23AM 24.6920 118.1220 178° South  Level Estimated
12:24AM 24.6148 118.1250 178° South  Level Estimated
12:25AM 24.5440 118.1277 178° South  Level Estimated
12:26AM 24.5440 118.1277 193° South  Level Estimated
12:27AM 24.5440 118.1277 193° South  Level Estimated
12:28AM 24.5440 118.1277 193° South  Level Estimated
12:29AM 24.5440 118.1277 193° South  Level Estimated
12:30AM 24.5440 118.1277 193° South  Level Estimated
12:31AM 24.5440 118.1277 193° South  Level Estimated
12:32AM 24.5440 118.1277 193° South  Level Estimated
12:33AM 24.5440 118.1277 193° South  Level Estimated
12:34AM 24.5440 118.1277 193° South  Level Estimated
12:35AM 24.5440 118.1277 193° South  Level Estimated
12:36AM 24.5440 118.1277 193° South  Level Estimated
12:37AM 24.5440 118.1277 193° South  Level Estimated